• Join FlightAware (Why Join?)
  • Login
  • US Flag 
08:19PM EST


 

Airport Tracker/Info


-or-


 

Live Flight TrackerFlight Track Log ✈ N1253W ✈ 01-Nov-2013 ✈ KEKM - KOSU

Flight Track Log - Related Links

Times and Time Zones

All times are in EDT time to prevent confusion due to time zone crossing. See the N1253W flight status page for this flight to view local times or setup timezone preferences in your user account.

Time Position Orientation Groundspeed Altitude Reporting Facility
EDT Latitude Longitude Course Direction KTS MPH feet Rate Location/Type
05:52PM 41.6311 -85.9900 151° Southeast 219 252 3,600  Level Chicago Center
05:53PM 41.5869 -85.9364 138° Southeast 219 252 5,500 1,980 Climbing Chicago Center
05:54PM 41.5469 -85.8844 136° Southeast 205 236 7,700 1,980 Climbing Chicago Center
05:55PM 41.5061 -85.8347 138° Southeast 202 232 9,600 1,860 Climbing Chicago Center
05:56PM 41.4754 -85.5491 140° Southeast  Level Estimated
05:56PM 41.4639 -85.7819 137° Southeast 207 238 11,600  Level Chicago Center
05:57PM 41.4142 -85.5048 151° Southeast  Level FlightAware Approximate
05:57PM 41.4111 -85.7189 138° Southeast 212 244 13,800  Level Chicago Center
05:58PM 41.3669 -85.6611 136° Southeast 220 253 15,400 1,260 Climbing Chicago Center
05:59PM 41.3156 -85.5992 138° Southeast 245 282 16,500 780 Climbing Chicago Center
06:00PM 41.2611 -85.5314 137° Southeast 265 305 17,100 240 Climbing Chicago Center
06:01PM 41.2006 -85.4572 137° Southeast 290 334 17,100  Level Chicago Center
06:02PM 41.1258 -85.3656 137° Southeast 303 349 17,100  Level Chicago Center
06:03PM 41.0642 -85.2906 137° Southeast 304 350 17,100  Level Chicago Center
06:04PM 41.0008 -85.2133 137° Southeast 309 356 17,100  Level Chicago Center
06:05PM 40.9569 -85.1158 121° Southeast 313 360 17,100  Level Chicago Center
06:06PM 40.9239 -85.0053 112° Southeast 322 371 17,100 -60 Level Chicago Center
06:07PM 40.8828 -84.8739 112° Southeast 323 372 17,000 -60 Descending Chicago Center
06:08PM 40.8492 -84.7628 112° Southeast 326 375 17,000  Level Chicago Center
06:09PM 40.8156 -84.6539 112° Southeast 324 373 17,000  Level Chicago Center
06:10PM 40.7978 -84.6006 114° Southeast 325 374 17,000  Level Indianapolis Center
06:11PM 40.7583 -84.4681 111° Southeast 324 373 17,000  Level Indianapolis Center
06:12PM 40.7233 -84.3597 113° Southeast 321 369 17,000 -60 Level Indianapolis Center
06:13PM 40.6900 -84.2511 112° Southeast 321 369 16,900 -600 Descending Indianapolis Center
06:14PM 40.6544 -84.1392 113° Southeast 330 380 15,800 -1,020 Descending Indianapolis Center
06:15PM 40.6186 -84.0250 112° Southeast 335 386 14,800 -960 Descending Indianapolis Center
06:16PM 40.5828 -83.9103 112° Southeast 339 390 13,800 -1,080 Descending Indianapolis Center
06:17PM 40.5383 -83.7747 113° Southeast 337 388 12,600 -1,140 Descending Indianapolis Center
06:18PM 40.5086 -83.6853 114° Southeast 329 379 11,800 -1,020 Descending Indianapolis Center
06:18PM 40.5028 -83.6633 109° East 331 381 11,600 -660 Descending Indianapolis Center
06:19PM 40.4664 -83.5536 114° Southeast 328 377 11,000 -420 Descending Indianapolis Center
06:19PM 40.4436 -83.5144 127° Southeast 304 350 11,100  Climbing Indianapolis Center
06:20PM 40.4217 -83.4592 118° Southeast 310 357 11,000 -180 Descending Indianapolis Center
06:20PM 40.4111 -83.4403 126° Southeast 303 349 11,000 -720 Level Indianapolis Center
06:21PM 40.3789 -83.3642 119° Southeast 304 350 10,300 -1,020 Descending Indianapolis Center
06:21PM 40.3664 -83.3394 124° Southeast 302 348 10,000 -780 Descending Indianapolis Center
06:22PM 40.3294 -83.2817 130° Southeast 296 341 9,500 -720 Descending Indianapolis Center
06:22PM 40.3142 -83.2703 150° Southeast 257 296 9,300 -1,980 Descending Indianapolis Center
06:23PM 40.2558 -83.2222 148° Southeast 245 282 7,400 -2,340 Descending Indianapolis Center
06:24PM 40.1983 -83.1753 148° Southeast 253 291 4,700 -2,220 Descending Indianapolis Center
06:25PM 40.1431 -83.1297 148° Southeast 236 272 3,200 -1,560 Descending Indianapolis Center
06:25PM 40.1406 -83.1267 137° Southeast 251 289 3,100 -480 Descending Indianapolis Center
06:26PM 40.1242 -83.0636 109° East 178 205 2,700 -420 Descending Indianapolis Center
06:26PM 40.1242 -83.0647 270° West 217 250 2,700 -600 Level Indianapolis Center
06:27PM 40.1069 -83.0225 118° Southeast 142 163 2,100 -600 Descending Indianapolis Center
06:27PM 40.1081 -83.0203 57° Northeast 177 204 2,100 -660 Level Indianapolis Center
06:28PM 40.0786 -83.0361 202° Southwest 146 168 1,400 -780 Descending Indianapolis Center
06:28PM 40.0778 -83.0425 260° West 112 129 1,300 -240 Descending Indianapolis Center
06:29PM 40.0758 -83.0897 267° West 134 154 1,200 -120 Descending Indianapolis Center
06:31PM 40.0667 -83.0755 90° East  Level FlightAware Approximate